createdAt,value
2023-02-11T00:00:14.692Z,101898.20
2023-02-11T00:02:29.568Z,101896.48
2023-02-11T00:04:20.909Z,101901.20
2023-02-11T00:06:12.611Z,101895.25
2023-02-11T00:08:04.557Z,101895.99
2023-02-11T00:09:56.121Z,101891.09
2023-02-11T00:11:47.213Z,101887.95
2023-02-11T00:13:38.512Z,101886.05
2023-02-11T00:15:29.806Z,101883.36
2023-02-11T00:17:21.980Z,101878.79
2023-02-11T00:19:13.363Z,101876.02
2023-02-11T00:21:09.251Z,101877.04
2023-02-11T00:23:00.449Z,101872.13
2023-02-11T00:24:51.939Z,101874.20
2023-02-11T00:26:43.556Z,101877.83
2023-02-11T00:28:35.022Z,101874.53
2023-02-11T00:30:26.732Z,101874.84
2023-02-11T00:32:18.145Z,101872.89
2023-02-11T00:34:09.503Z,101870.74
2023-02-11T00:36:07.625Z,101862.36
2023-02-11T00:37:58.955Z,101861.61
2023-02-11T00:39:50.260Z,101858.55
2023-02-11T00:41:41.631Z,101862.41
2023-02-11T00:43:32.663Z,101865.42
2023-02-11T00:45:24.024Z,101867.92
2023-02-11T00:47:15.536Z,101863.84
2023-02-11T00:49:07.025Z,101862.80
2023-02-11T00:50:58.277Z,101856.02
2023-02-11T00:52:49.823Z,101860.27
2023-02-11T00:54:41.182Z,101855.94
2023-02-11T00:56:32.434Z,101854.33
2023-02-11T00:58:23.826Z,101854.14
2023-02-11T01:00:15.501Z,101850.73
2023-02-11T01:02:06.509Z,101840.96
2023-02-11T01:03:57.974Z,101843.08
2023-02-11T01:05:49.803Z,101842.84
2023-02-11T01:07:41.417Z,101842.88
2023-02-11T01:09:32.757Z,101832.51
2023-02-11T01:11:24.428Z,101829.34
2023-02-11T01:13:15.983Z,101829.95
2023-02-11T01:15:08.048Z,101830.77
2023-02-11T01:16:59.230Z,101830.46
2023-02-11T01:18:50.649Z,101822.96
2023-02-11T01:20:42.089Z,101821.55
2023-02-11T01:22:34.444Z,101810.05
2023-02-11T01:24:25.837Z,101806.67
2023-02-11T01:26:17.044Z,101803.54
2023-02-11T01:28:16.069Z,101804.72
2023-02-11T01:30:08.730Z,101799.51
2023-02-11T01:32:01.251Z,101799.66
2023-02-11T01:33:53.028Z,101795.50
2023-02-11T01:35:44.661Z,101791.81
2023-02-11T01:37:36.360Z,101791.34
2023-02-11T01:39:27.791Z,101793.50
2023-02-11T01:41:19.567Z,101780.64
2023-02-11T01:43:11.675Z,101767.70
2023-02-11T01:45:41.462Z,101768.23
2023-02-11T01:47:33.075Z,101768.52
2023-02-11T01:49:45.853Z,101761.30
2023-02-11T01:51:44.391Z,101756.66
2023-02-11T01:53:55.539Z,101754.81
2023-02-11T01:56:15.953Z,101748.34
2023-02-11T01:58:07.596Z,101748.95
2023-02-11T02:00:10.818Z,101745.81
2023-02-11T02:02:07.317Z,101740.94
2023-02-11T02:04:01.192Z,101737.23
2023-02-11T02:06:03.174Z,101737.20
2023-02-11T02:08:03.302Z,101734.16
2023-02-11T02:09:59.395Z,101736.79
2023-02-11T02:11:51.101Z,101741.60
2023-02-11T02:13:42.436Z,101732.23
2023-02-11T02:15:35.078Z,101732.52
2023-02-11T02:17:38.746Z,101728.73
2023-02-11T02:20:02.448Z,101724.84
2023-02-11T02:22:24.705Z,101719.96
2023-02-11T02:24:50.643Z,101713.67
2023-02-11T02:27:02.982Z,101712.42
2023-02-11T02:29:29.618Z,101710.55
2023-02-11T02:31:42.255Z,101698.58
2023-02-11T02:33:40.680Z,101692.77
2023-02-11T02:35:48.010Z,101692.88
2023-02-11T02:37:48.610Z,101689.86
2023-02-11T02:39:40.248Z,101690.83
2023-02-11T02:41:33.966Z,101686.98
2023-02-11T02:43:27.214Z,101685.61
2023-02-11T02:45:18.931Z,101677.02
2023-02-11T02:47:10.560Z,101677.08
2023-02-11T02:49:02.051Z,101674.98
2023-02-11T02:51:18.967Z,101668.27
2023-02-11T02:53:33.097Z,101664.08
2023-02-11T02:55:44.507Z,101661.63
2023-02-11T02:57:48.800Z,101666.88
2023-02-11T02:59:53.595Z,101661.53
2023-02-11T03:02:00.832Z,101660.85
2023-02-11T03:04:04.058Z,101660.09
2023-02-11T03:06:06.145Z,101659.76
2023-02-11T03:08:13.801Z,101653.58
2023-02-11T03:10:13.634Z,101639.77
2023-02-11T03:12:06.252Z,101636.85
2023-02-11T03:13:58.100Z,101637.52
2023-02-11T03:15:52.931Z,101650.10
2023-02-11T03:17:47.116Z,101650.13
2023-02-11T03:19:41.548Z,101650.83
2023-02-11T03:21:33.386Z,101647.20
2023-02-11T03:23:40.708Z,101644.83
2023-02-11T03:25:38.303Z,101645.30
2023-02-11T03:27:41.859Z,101647.52
2023-02-11T03:29:54.267Z,101644.14
2023-02-11T03:31:56.838Z,101653.21
2023-02-11T03:34:08.834Z,101650.30
2023-02-11T03:36:06.960Z,101652.17
2023-02-11T03:38:02.716Z,101650.80
2023-02-11T03:39:57.701Z,101645.66
2023-02-11T03:41:50.139Z,101643.09
2023-02-11T03:43:47.635Z,101642.59
2023-02-11T03:45:39.823Z,101641.32
2023-02-11T03:47:32.981Z,101639.03
2023-02-11T03:49:24.348Z,101641.08
2023-02-11T03:51:16.316Z,101640.23
2023-02-11T03:53:08.196Z,101638.94
2023-02-11T03:55:00.816Z,101634.27
2023-02-11T03:56:54.814Z,101629.77
2023-02-11T03:58:46.623Z,101630.61
2023-02-11T04:00:41.010Z,101631.88
2023-02-11T04:02:35.024Z,101630.95
2023-02-11T04:04:26.574Z,101629.92
2023-02-11T04:06:18.063Z,101622.81
2023-02-11T04:08:09.608Z,101614.02
2023-02-11T04:10:01.093Z,101611.08
2023-02-11T04:11:52.176Z,101614.58
2023-02-11T04:13:43.503Z,101611.42
2023-02-11T04:15:34.547Z,101609.60
2023-02-11T04:17:25.776Z,101603.70
2023-02-11T04:19:17.163Z,101593.91
2023-02-11T04:21:09.292Z,101592.10
2023-02-11T04:23:01.020Z,101584.38
2023-02-11T04:24:52.465Z,101589.52
2023-02-11T04:26:44.065Z,101586.84
2023-02-11T04:28:36.360Z,101579.23
2023-02-11T04:30:28.724Z,101580.92
2023-02-11T04:32:20.058Z,101582.65
2023-02-11T04:34:11.304Z,101574.11
2023-02-11T04:36:02.332Z,101566.62
2023-02-11T04:37:53.862Z,101569.54
2023-02-11T04:39:45.424Z,101571.98
2023-02-11T04:41:36.590Z,101571.80
2023-02-11T04:43:27.988Z,101569.56
2023-02-11T04:45:19.707Z,101568.17
2023-02-11T04:47:13.642Z,101567.09
2023-02-11T04:49:04.910Z,101569.46
2023-02-11T04:50:56.314Z,101567.97
2023-02-11T04:52:47.515Z,101575.32
2023-02-11T04:54:39.446Z,101570.84
2023-02-11T04:56:30.817Z,101560.70
2023-02-11T04:58:22.237Z,101556.64
2023-02-11T05:00:14.097Z,101559.05
2023-02-11T05:02:05.761Z,101560.64
2023-02-11T05:03:57.288Z,101562.20
2023-02-11T05:05:48.631Z,101558.52
2023-02-11T05:07:40.443Z,101555.02
2023-02-11T05:09:31.801Z,101554.45
2023-02-11T05:11:24.908Z,101553.02
2023-02-11T05:13:16.456Z,101548.30
2023-02-11T05:15:08.030Z,101546.15
2023-02-11T05:16:59.361Z,101539.30
2023-02-11T05:18:52.626Z,101531.58
2023-02-11T05:20:44.550Z,101528.67
2023-02-11T05:22:35.811Z,101523.23
2023-02-11T05:24:27.303Z,101521.79
2023-02-11T05:26:19.031Z,101513.20
2023-02-11T05:28:10.547Z,101509.84
2023-02-11T05:30:01.797Z,101514.46
2023-02-11T05:31:53.143Z,101517.95
2023-02-11T05:33:44.602Z,101518.20
2023-02-11T05:35:36.246Z,101522.69
2023-02-11T05:37:27.705Z,101517.38
2023-02-11T05:39:19.283Z,101513.98
2023-02-11T05:41:11.455Z,101511.54
2023-02-11T05:43:02.757Z,101517.86
2023-02-11T05:44:54.257Z,101514.64
2023-02-11T05:46:45.752Z,101519.45
2023-02-11T05:48:37.265Z,101517.13
2023-02-11T05:50:28.705Z,101519.39
2023-02-11T05:52:21.266Z,101515.58
2023-02-11T05:54:12.479Z,101514.06
2023-02-11T05:56:03.656Z,101520.11
2023-02-11T05:57:55.137Z,101516.59
2023-02-11T05:59:46.514Z,101515.48
2023-02-11T06:01:37.684Z,101512.79
2023-02-11T06:03:29.129Z,101517.01
2023-02-11T06:05:20.870Z,101514.59
2023-02-11T06:07:11.906Z,101510.98
2023-02-11T06:09:04.055Z,101507.98
2023-02-11T06:10:55.354Z,101505.73
2023-02-11T06:12:46.475Z,101508.98
2023-02-11T06:14:37.569Z,101505.79
2023-02-11T06:16:29.088Z,101502.33
2023-02-11T06:18:20.648Z,101495.02
2023-02-11T06:20:12.364Z,101496.57
2023-02-11T06:22:04.064Z,101498.33
2023-02-11T06:23:55.290Z,101500.84
2023-02-11T06:25:46.563Z,101503.52
2023-02-11T06:27:39.009Z,101505.15
2023-02-11T06:29:30.331Z,101502.00
2023-02-11T06:31:21.897Z,101507.78
2023-02-11T06:33:13.122Z,101503.38
2023-02-11T06:35:04.569Z,101503.02
2023-02-11T06:36:56.024Z,101506.89
2023-02-11T06:38:47.911Z,101503.92
2023-02-11T06:40:39.470Z,101503.70
2023-02-11T06:42:30.769Z,101504.59
2023-02-11T06:44:22.263Z,101504.31
2023-02-11T06:46:14.309Z,101503.39
2023-02-11T06:48:05.792Z,101499.79
2023-02-11T06:49:56.965Z,101500.51
2023-02-11T06:51:48.542Z,101498.81
2023-02-11T06:53:42.519Z,101496.49
2023-02-11T06:55:35.387Z,101499.23
2023-02-11T06:57:26.520Z,101497.65
2023-02-11T06:59:20.668Z,101496.53
2023-02-11T07:01:14.188Z,101488.67
2023-02-11T07:03:05.530Z,101491.69
2023-02-11T07:04:57.034Z,101498.95
2023-02-11T07:06:48.143Z,101495.24
2023-02-11T07:08:40.559Z,101490.55
2023-02-11T07:10:31.919Z,101481.96
2023-02-11T07:12:23.362Z,101473.73
2023-02-11T07:14:14.919Z,101464.30
2023-02-11T07:16:07.973Z,101462.06
2023-02-11T07:17:59.707Z,101464.48
2023-02-11T07:19:50.664Z,101467.25
2023-02-11T07:21:41.971Z,101466.41
2023-02-11T07:23:34.134Z,101471.57
2023-02-11T07:25:25.625Z,101473.52
2023-02-11T07:27:17.312Z,101477.80
2023-02-11T07:29:08.912Z,101473.90
2023-02-11T07:31:00.598Z,101467.27
2023-02-11T07:32:51.931Z,101459.66
2023-02-11T07:34:43.030Z,101458.27
2023-02-11T07:36:34.648Z,101465.86
2023-02-11T07:38:26.132Z,101474.28
2023-02-11T07:40:17.641Z,101465.09
2023-02-11T07:42:08.848Z,101470.42
2023-02-11T07:44:03.250Z,101470.33
2023-02-11T07:45:54.573Z,101468.45
2023-02-11T07:47:45.828Z,101467.55
2023-02-11T07:49:37.380Z,101464.90
2023-02-11T07:51:30.289Z,101462.17
2023-02-11T07:53:21.760Z,101464.47
2023-02-11T07:55:13.321Z,101465.20
2023-02-11T07:57:04.804Z,101463.63
2023-02-11T07:59:00.423Z,101472.11
2023-02-11T08:00:52.053Z,101465.39
2023-02-11T08:02:43.677Z,101467.59
2023-02-11T08:04:35.459Z,101478.43
2023-02-11T08:06:29.134Z,101476.63
2023-02-11T08:08:20.273Z,101478.98
2023-02-11T08:10:11.810Z,101479.23
2023-02-11T08:12:03.099Z,101478.70
2023-02-11T08:13:54.815Z,101481.84
2023-02-11T08:15:46.179Z,101475.84
2023-02-11T08:17:37.609Z,101467.84
2023-02-11T08:19:29.400Z,101469.73
2023-02-11T08:21:21.169Z,101472.77
2023-02-11T08:23:12.327Z,101479.67
2023-02-11T08:25:04.503Z,101482.86
2023-02-11T08:26:55.803Z,101485.15
2023-02-11T08:28:48.088Z,101487.55
2023-02-11T08:30:39.587Z,101497.42
2023-02-11T08:32:31.187Z,101494.09
2023-02-11T08:34:22.798Z,101496.11
2023-02-11T08:36:16.953Z,101496.61
2023-02-11T08:38:09.013Z,101494.58
2023-02-11T08:40:00.257Z,101495.16
2023-02-11T08:41:54.810Z,101492.09
2023-02-11T08:43:46.400Z,101493.61
2023-02-11T08:45:37.672Z,101494.83
2023-02-11T08:47:29.081Z,101496.07
2023-02-11T08:49:20.988Z,101490.19
2023-02-11T08:51:27.571Z,101488.38
2023-02-11T08:53:18.963Z,101484.64
2023-02-11T08:55:10.569Z,101477.90
2023-02-11T08:57:02.097Z,101478.94
2023-02-11T08:58:54.359Z,101476.40
2023-02-11T09:00:46.312Z,101468.98
2023-02-11T09:02:37.798Z,101456.80
2023-02-11T09:04:29.632Z,101448.23
2023-02-11T09:06:22.507Z,101442.95
2023-02-11T09:08:14.565Z,101434.00
2023-02-11T09:10:06.410Z,101435.88
2023-02-11T09:11:57.911Z,101433.80
2023-02-11T09:13:50.969Z,101436.35
2023-02-11T09:15:46.954Z,101438.20
2023-02-11T09:17:38.461Z,101434.89
2023-02-11T09:19:29.748Z,101434.08
2023-02-11T09:21:21.411Z,101428.81
2023-02-11T09:23:12.628Z,101425.81
2023-02-11T09:25:03.793Z,101426.75
2023-02-11T09:26:55.075Z,101427.58
2023-02-11T09:28:47.165Z,101430.53
2023-02-11T09:30:39.055Z,101428.92
2023-02-11T09:32:30.400Z,101429.46
2023-02-11T09:34:21.737Z,101428.66
2023-02-11T09:36:14.492Z,101429.40
2023-02-11T09:38:05.926Z,101426.02
2023-02-11T09:39:57.209Z,101420.71
2023-02-11T09:41:55.354Z,101419.60
2023-02-11T09:43:47.250Z,101417.27
2023-02-11T09:45:38.921Z,101407.02
2023-02-11T09:47:35.361Z,101402.02
2023-02-11T09:49:49.233Z,101399.08
2023-02-11T09:51:52.045Z,101399.27
2023-02-11T09:53:43.607Z,101404.04
2023-02-11T09:55:39.470Z,101396.86
2023-02-11T09:57:35.718Z,101397.23
2023-02-11T09:59:26.942Z,101394.05
2023-02-11T10:01:40.424Z,101403.29
2023-02-11T10:03:34.248Z,101409.55
2023-02-11T10:05:35.398Z,101412.81
2023-02-11T10:07:43.296Z,101411.65
2023-02-11T10:09:53.750Z,101404.66
2023-02-11T10:11:57.031Z,101399.23
2023-02-11T10:14:13.107Z,101392.88
2023-02-11T10:16:18.720Z,101386.88
2023-02-11T10:18:12.906Z,101382.65
2023-02-11T10:20:26.704Z,101377.39
2023-02-11T10:22:25.830Z,101382.31
2023-02-11T10:24:17.709Z,101382.96
2023-02-11T10:26:16.900Z,101372.98
2023-02-11T10:28:17.026Z,101362.44
2023-02-11T10:30:23.514Z,101362.64
2023-02-11T10:32:46.886Z,101363.59
2023-02-11T10:34:41.518Z,101366.11
2023-02-11T10:36:41.427Z,101363.20
2023-02-11T10:38:33.889Z,101363.00
2023-02-11T10:40:27.082Z,101370.38
2023-02-11T10:42:18.626Z,101375.21
2023-02-11T10:44:22.160Z,101370.20
2023-02-11T10:46:23.121Z,101363.48
2023-02-11T10:48:36.260Z,101359.44
2023-02-11T10:50:30.194Z,101357.09
2023-02-11T10:52:26.372Z,101361.21
2023-02-11T10:54:21.219Z,101365.46
2023-02-11T10:56:20.994Z,101370.38
2023-02-11T10:58:24.750Z,101379.11
2023-02-11T11:00:32.413Z,101379.49
2023-02-11T11:02:32.146Z,101384.83
2023-02-11T11:04:45.239Z,101384.52
2023-02-11T11:06:36.611Z,101375.32
2023-02-11T11:08:41.958Z,101378.61
2023-02-11T11:10:45.894Z,101379.14
2023-02-11T11:12:46.380Z,101383.20
2023-02-11T11:14:38.100Z,101383.25
2023-02-11T11:16:34.066Z,101380.11
2023-02-11T11:18:25.326Z,101365.80
2023-02-11T11:20:20.058Z,101357.92
2023-02-11T11:22:21.379Z,101357.11
2023-02-11T11:24:19.060Z,101365.43
2023-02-11T11:26:14.383Z,101366.21
2023-02-11T11:28:05.722Z,101362.16
2023-02-11T11:29:57.331Z,101370.75
2023-02-11T11:31:52.393Z,101370.54
2023-02-11T11:33:46.879Z,101371.37
2023-02-11T11:35:38.506Z,101365.64
2023-02-11T11:37:33.956Z,101358.27
2023-02-11T11:39:28.801Z,101356.00
2023-02-11T11:41:26.818Z,101353.18
2023-02-11T11:43:23.083Z,101354.35
2023-02-11T11:45:19.647Z,101356.23
2023-02-11T11:47:10.920Z,101365.72
2023-02-11T11:49:25.912Z,101366.96
2023-02-11T11:51:17.361Z,101362.36
2023-02-11T11:53:29.347Z,101370.02
2023-02-11T11:55:25.448Z,101363.99
2023-02-11T11:57:19.721Z,101359.42
2023-02-11T11:59:14.892Z,101357.91
2023-02-11T12:01:09.116Z,101357.55
2023-02-11T12:03:21.658Z,101360.90
2023-02-11T12:05:36.486Z,101359.07
2023-02-11T12:07:50.328Z,101351.31
2023-02-11T12:09:54.040Z,101343.95
2023-02-11T12:12:11.469Z,101345.84
2023-02-11T12:14:20.832Z,101342.27
2023-02-11T12:16:34.674Z,101336.04
2023-02-11T12:18:36.132Z,101334.66
2023-02-11T12:21:09.631Z,101328.52
2023-02-11T12:23:06.815Z,101327.71
2023-02-11T12:25:26.188Z,101320.77
2023-02-11T12:27:42.175Z,101311.77
2023-02-11T12:29:51.819Z,101311.96
2023-02-11T12:31:52.140Z,101321.81
2023-02-11T12:34:10.938Z,101327.67
2023-02-11T12:36:11.759Z,101321.33
2023-02-11T12:38:15.892Z,101311.56
2023-02-11T12:40:12.947Z,101308.11
2023-02-11T12:42:35.489Z,101302.02
2023-02-11T12:44:45.559Z,101293.14
2023-02-11T12:46:51.284Z,101293.50
2023-02-11T12:48:56.969Z,101295.38
2023-02-11T12:51:06.769Z,101293.46
2023-02-11T12:53:08.779Z,101292.96
2023-02-11T12:55:23.655Z,101288.31
2023-02-11T12:57:21.468Z,101290.45
2023-02-11T12:59:18.385Z,101297.56
2023-02-11T13:01:16.265Z,101307.48
2023-02-11T13:03:13.119Z,101306.84
2023-02-11T13:05:26.401Z,101302.84
2023-02-11T13:07:31.737Z,101299.02
2023-02-11T13:09:27.222Z,101304.95
2023-02-11T13:11:28.800Z,101305.16
2023-02-11T13:13:27.662Z,101309.27
2023-02-11T13:15:19.345Z,101305.88
2023-02-11T13:17:21.056Z,101306.15
2023-02-11T13:19:23.797Z,101308.16
2023-02-11T13:21:14.974Z,101308.42
2023-02-11T13:23:15.812Z,101308.63
2023-02-11T13:25:19.432Z,101304.92
2023-02-11T13:27:29.777Z,101311.07
2023-02-11T13:29:21.316Z,101314.84
2023-02-11T13:31:14.799Z,101316.15
2023-02-11T13:33:17.809Z,101319.76
2023-02-11T13:35:29.362Z,101314.96
2023-02-11T13:37:49.634Z,101309.80
2023-02-11T13:39:41.178Z,101296.86
2023-02-11T13:41:40.003Z,101294.56
2023-02-11T13:43:33.906Z,101297.30
2023-02-11T13:45:44.052Z,101295.45
2023-02-11T13:47:37.637Z,101296.92
2023-02-11T13:49:38.283Z,101293.69
2023-02-11T13:51:40.690Z,101284.39
2023-02-11T13:53:52.932Z,101283.34
2023-02-11T13:55:46.557Z,101286.89
2023-02-11T13:57:39.655Z,101290.59
2023-02-11T13:59:33.078Z,101287.92
2023-02-11T14:02:07.907Z,101286.75
2023-02-11T14:04:38.117Z,101286.98
2023-02-11T14:07:04.954Z,101285.59
2023-02-11T14:09:14.151Z,101282.25
2023-02-11T14:11:23.503Z,101284.40
2023-02-11T14:13:33.634Z,101290.03
2023-02-11T14:15:27.079Z,101291.75
2023-02-11T14:17:18.944Z,101296.55
2023-02-11T14:19:10.276Z,101303.45
2023-02-11T14:21:13.579Z,101305.36
2023-02-11T14:23:05.970Z,101304.17
2023-02-11T14:24:59.872Z,101310.68
2023-02-11T14:27:11.572Z,101309.87
2023-02-11T14:29:24.180Z,101310.31
2023-02-11T14:31:21.787Z,101314.06
2023-02-11T14:33:29.357Z,101320.91
2023-02-11T14:35:29.421Z,101317.91
2023-02-11T14:37:50.616Z,101330.02
2023-02-11T14:40:03.651Z,101332.74
2023-02-11T14:41:55.746Z,101336.16
2023-02-11T14:43:49.948Z,101336.96
2023-02-11T14:45:43.637Z,101338.36
2023-02-11T14:47:41.856Z,101341.88
2023-02-11T14:49:36.545Z,101346.71
2023-02-11T14:51:34.895Z,101347.77
2023-02-11T14:53:28.362Z,101360.63
2023-02-11T14:55:52.463Z,101358.98
2023-02-11T14:57:45.685Z,101359.66
2023-02-11T14:59:37.343Z,101359.20
2023-02-11T15:01:35.208Z,101366.09
2023-02-11T15:03:37.897Z,101365.16
2023-02-11T15:05:29.804Z,101370.02
2023-02-11T15:07:21.861Z,101370.70
2023-02-11T15:09:17.134Z,101377.33
2023-02-11T15:11:12.473Z,101373.58
2023-02-11T15:13:04.975Z,101371.90
2023-02-11T15:14:59.261Z,101370.11
2023-02-11T15:16:53.587Z,101374.55
2023-02-11T15:18:48.416Z,101377.09
2023-02-11T15:20:41.162Z,101373.46
2023-02-11T15:22:36.500Z,101374.82
2023-02-11T15:24:31.007Z,101372.21
2023-02-11T15:26:22.554Z,101371.34
2023-02-11T15:28:22.673Z,101371.80
2023-02-11T15:30:22.760Z,101372.11
2023-02-11T15:32:16.835Z,101369.27
2023-02-11T15:34:08.944Z,101375.05
2023-02-11T15:36:02.079Z,101375.98
2023-02-11T15:37:53.455Z,101374.91
2023-02-11T15:39:45.139Z,101377.83
2023-02-11T15:41:38.355Z,101378.38
2023-02-11T15:43:48.995Z,101381.55
2023-02-11T15:45:43.266Z,101380.45
2023-02-11T15:47:35.427Z,101383.05
2023-02-11T15:49:27.280Z,101383.61
2023-02-11T15:51:25.317Z,101382.06
2023-02-11T15:53:25.975Z,101388.33
2023-02-11T15:55:17.475Z,101392.19
2023-02-11T15:57:10.141Z,101391.20
2023-02-11T15:59:20.315Z,101385.82
2023-02-11T16:01:12.779Z,101387.52
2023-02-11T16:03:04.668Z,101389.49
2023-02-11T16:04:58.027Z,101388.04
2023-02-11T16:06:50.673Z,101388.79
2023-02-11T16:08:43.155Z,101391.75
2023-02-11T16:10:36.146Z,101397.96
2023-02-11T16:12:27.532Z,101403.30
2023-02-11T16:14:29.421Z,101396.27
2023-02-11T16:16:25.322Z,101391.51
2023-02-11T16:18:37.736Z,101382.70
2023-02-11T16:20:30.153Z,101374.92
2023-02-11T16:22:26.471Z,101371.61
2023-02-11T16:24:25.150Z,101372.31
2023-02-11T16:26:32.877Z,101380.26
2023-02-11T16:28:24.187Z,101388.95
2023-02-11T16:30:29.215Z,101390.23
2023-02-11T16:32:26.092Z,101393.66
2023-02-11T16:34:22.698Z,101403.55
2023-02-11T16:36:17.252Z,101403.73
2023-02-11T16:38:09.013Z,101402.65
2023-02-11T16:40:00.151Z,101401.85
2023-02-11T16:41:52.371Z,101405.83
2023-02-11T16:43:43.668Z,101410.21
2023-02-11T16:45:38.511Z,101410.05
2023-02-11T16:47:31.164Z,101410.13
2023-02-11T16:49:36.259Z,101416.55
2023-02-11T16:51:27.769Z,101416.83
2023-02-11T16:53:22.837Z,101421.87
2023-02-11T16:55:15.322Z,101423.32
2023-02-11T16:57:14.211Z,101430.56
2023-02-11T16:59:05.781Z,101434.92
2023-02-11T17:00:57.563Z,101433.36
2023-02-11T17:02:49.500Z,101438.45
2023-02-11T17:04:41.333Z,101450.44
2023-02-11T17:06:33.863Z,101453.95
2023-02-11T17:08:25.605Z,101458.28
2023-02-11T17:10:22.509Z,101461.61
2023-02-11T17:12:14.012Z,101463.63
2023-02-11T17:14:05.665Z,101463.45
2023-02-11T17:15:57.310Z,101465.77
2023-02-11T17:17:48.699Z,101473.92
2023-02-11T17:19:39.988Z,101477.96
2023-02-11T17:21:32.014Z,101488.70
2023-02-11T17:23:23.467Z,101483.65
2023-02-11T17:25:14.847Z,101481.08
2023-02-11T17:27:06.201Z,101481.64
2023-02-11T17:28:57.530Z,101489.23
2023-02-11T17:30:48.587Z,101495.50
2023-02-11T17:32:39.738Z,101499.55
2023-02-11T17:34:32.349Z,101504.35
2023-02-11T17:36:24.040Z,101510.56
2023-02-11T17:38:15.860Z,101518.89
2023-02-11T17:40:08.371Z,101519.50
2023-02-11T17:41:59.652Z,101516.84
2023-02-11T17:43:50.854Z,101516.79
2023-02-11T17:45:42.497Z,101514.01
2023-02-11T17:47:34.223Z,101516.34
2023-02-11T17:49:25.885Z,101517.08
2023-02-11T17:51:26.317Z,101521.79
2023-02-11T17:53:17.903Z,101526.46
2023-02-11T17:55:09.204Z,101527.58
2023-02-11T17:57:00.997Z,101527.44
2023-02-11T17:58:53.260Z,101530.98
2023-02-11T18:00:45.404Z,101526.92
2023-02-11T18:02:36.807Z,101531.80
2023-02-11T18:04:29.063Z,101528.94
2023-02-11T18:06:21.645Z,101534.04
2023-02-11T18:08:13.497Z,101532.64
2023-02-11T18:10:06.963Z,101525.71
2023-02-11T18:11:58.955Z,101527.64
2023-02-11T18:13:54.418Z,101529.79
2023-02-11T18:15:46.084Z,101532.65
2023-02-11T18:17:37.457Z,101530.34
2023-02-11T18:19:30.616Z,101528.31
2023-02-11T18:21:22.497Z,101535.66
2023-02-11T18:23:13.948Z,101534.02
2023-02-11T18:25:07.291Z,101537.27
2023-02-11T18:26:58.748Z,101544.34
2023-02-11T18:28:49.887Z,101543.38
2023-02-11T18:30:41.512Z,101541.41
2023-02-11T18:32:33.024Z,101540.96
2023-02-11T18:34:24.706Z,101541.70
2023-02-11T18:36:16.835Z,101544.48
2023-02-11T18:38:08.869Z,101542.89
2023-02-11T18:40:00.466Z,101540.58
2023-02-11T18:41:55.027Z,101540.49
2023-02-11T18:43:46.693Z,101540.78
2023-02-11T18:45:42.983Z,101533.23
2023-02-11T18:47:34.414Z,101528.30
2023-02-11T18:49:25.936Z,101529.05
2023-02-11T18:51:21.267Z,101534.23
2023-02-11T18:53:15.673Z,101531.63
2023-02-11T18:55:08.094Z,101539.19
2023-02-11T18:56:59.480Z,101533.71
2023-02-11T18:58:52.069Z,101539.84
2023-02-11T19:00:46.104Z,101533.73
2023-02-11T19:02:37.613Z,101543.20
2023-02-11T19:04:29.014Z,101547.58
2023-02-11T19:06:24.952Z,101548.83
2023-02-11T19:08:17.173Z,101548.46
2023-02-11T19:10:08.904Z,101546.06
2023-02-11T19:12:01.950Z,101549.61
2023-02-11T19:13:53.080Z,101550.64
2023-02-11T19:15:45.872Z,101561.50
2023-02-11T19:17:38.283Z,101564.71
2023-02-11T19:19:31.413Z,101564.20
2023-02-11T19:21:22.883Z,101564.51
2023-02-11T19:23:14.368Z,101569.06
2023-02-11T19:25:07.262Z,101571.75
2023-02-11T19:27:00.757Z,101568.73
2023-02-11T19:28:52.080Z,101572.99
2023-02-11T19:30:43.826Z,101573.87
2023-02-11T19:32:34.916Z,101573.75
2023-02-11T19:34:26.496Z,101572.25
2023-02-11T19:36:18.634Z,101569.47
2023-02-11T19:38:10.182Z,101578.05
2023-02-11T19:40:01.297Z,101575.61
2023-02-11T19:41:53.526Z,101576.11
2023-02-11T19:43:47.056Z,101579.66
2023-02-11T19:45:38.247Z,101584.02
2023-02-11T19:47:29.810Z,101588.91
2023-02-11T19:49:24.531Z,101582.34
2023-02-11T19:51:15.946Z,101576.98
2023-02-11T19:53:07.533Z,101579.11
2023-02-11T19:54:59.807Z,101584.84
2023-02-11T19:56:51.238Z,101588.47
2023-02-11T19:58:43.709Z,101589.85
2023-02-11T20:00:34.952Z,101588.21
2023-02-11T20:02:26.066Z,101591.27
2023-02-11T20:04:17.526Z,101600.17
2023-02-11T20:06:17.122Z,101607.85
2023-02-11T20:08:08.344Z,101604.88
2023-02-11T20:09:59.939Z,101607.67
2023-02-11T20:11:51.600Z,101617.04
2023-02-11T20:13:43.694Z,101618.07
2023-02-11T20:15:35.098Z,101620.44
2023-02-11T20:17:26.730Z,101615.38
2023-02-11T20:19:21.524Z,101614.36
2023-02-11T20:21:15.334Z,101613.36
2023-02-11T20:23:06.765Z,101619.21
2023-02-11T20:24:57.842Z,101625.09
2023-02-11T20:26:49.750Z,101632.95
2023-02-11T20:28:41.352Z,101631.45
2023-02-11T20:30:32.858Z,101635.88
2023-02-11T20:32:24.252Z,101635.90
2023-02-11T20:34:17.615Z,101631.25
2023-02-11T20:36:21.148Z,101630.91
2023-02-11T20:38:12.712Z,101632.39
2023-02-11T20:40:06.052Z,101634.24
2023-02-11T20:41:58.162Z,101641.77
2023-02-11T20:43:53.180Z,101642.50
2023-02-11T20:45:45.565Z,101643.59
2023-02-11T20:47:37.794Z,101647.06
2023-02-11T20:49:29.111Z,101648.04
2023-02-11T20:51:23.951Z,101654.92
2023-02-11T20:53:15.419Z,101655.17
2023-02-11T20:55:06.638Z,101657.21
2023-02-11T20:56:58.404Z,101658.35
2023-02-11T20:58:50.101Z,101662.36
2023-02-11T21:00:41.411Z,101660.52
2023-02-11T21:02:32.437Z,101658.42
2023-02-11T21:04:27.620Z,101659.89
2023-02-11T21:06:20.097Z,101665.89
2023-02-11T21:08:11.645Z,101672.52
2023-02-11T21:10:03.683Z,101672.29
2023-02-11T21:11:55.535Z,101674.40
2023-02-11T21:13:46.818Z,101680.30
2023-02-11T21:15:38.130Z,101691.48
2023-02-11T21:17:29.816Z,101693.53
2023-02-11T21:19:21.367Z,101700.84
2023-02-11T21:21:13.047Z,101701.64
2023-02-11T21:23:04.676Z,101708.87
2023-02-11T21:24:56.241Z,101714.77
2023-02-11T21:26:47.273Z,101715.10
2023-02-11T21:28:40.970Z,101709.14
2023-02-11T21:30:32.721Z,101708.52
2023-02-11T21:32:24.145Z,101710.61
2023-02-11T21:34:16.226Z,101713.08
2023-02-11T21:36:08.048Z,101714.50
2023-02-11T21:37:59.594Z,101713.30
2023-02-11T21:39:51.082Z,101718.46
2023-02-11T21:41:42.437Z,101722.89
2023-02-11T21:43:34.149Z,101724.23
2023-02-11T21:45:25.755Z,101727.51
2023-02-11T21:47:17.135Z,101727.23
2023-02-11T21:49:08.383Z,101730.19
2023-02-11T21:51:04.634Z,101728.87
2023-02-11T21:52:55.996Z,101728.10
2023-02-11T21:54:49.894Z,101728.89
2023-02-11T21:56:41.555Z,101727.73
2023-02-11T21:58:32.965Z,101731.79